createdAt,value
2023-06-04T00:01:16.932Z,4.60
2023-06-04T00:03:44.612Z,4.30
2023-06-04T00:06:11.379Z,4.00
2023-06-04T00:08:38.023Z,4.80
2023-06-04T00:11:04.836Z,4.40
2023-06-04T00:13:32.237Z,4.80
2023-06-04T00:15:58.965Z,4.70
2023-06-04T00:18:25.830Z,4.50
2023-06-04T00:20:52.581Z,4.60
2023-06-04T00:23:19.302Z,4.60
2023-06-04T00:25:46.388Z,4.50
2023-06-04T00:28:13.072Z,4.80
2023-06-04T00:30:39.792Z,4.10
2023-06-04T00:33:06.519Z,4.50
2023-06-04T00:35:34.005Z,4.20
2023-06-04T00:38:00.681Z,4.30
2023-06-04T00:40:27.377Z,4.30
2023-06-04T00:42:54.007Z,4.20
2023-06-04T00:45:21.432Z,4.20
2023-06-04T00:47:48.591Z,4.20
2023-06-04T00:50:15.500Z,5.00
2023-06-04T00:52:42.588Z,4.20
2023-06-04T00:55:10.937Z,4.40
2023-06-04T00:57:38.624Z,4.20
2023-06-04T01:00:07.395Z,4.10
2023-06-04T01:02:35.021Z,4.50
2023-06-04T01:05:04.739Z,4.00
2023-06-04T01:07:31.809Z,5.00
2023-06-04T01:09:58.802Z,5.00
2023-06-04T01:12:25.545Z,5.70
2023-06-04T01:14:52.326Z,4.80
2023-06-04T01:17:25.041Z,4.70
2023-06-04T01:20:17.288Z,5.40
2023-06-04T01:22:48.183Z,4.80
2023-06-04T01:25:20.765Z,5.40
2023-06-04T01:27:57.193Z,5.30
2023-06-04T01:30:37.745Z,5.50
2023-06-04T01:33:04.734Z,4.20
2023-06-04T01:35:34.716Z,4.50
2023-06-04T01:38:01.602Z,4.00
2023-06-04T01:40:28.513Z,3.70
2023-06-04T01:42:56.417Z,3.90
2023-06-04T01:45:23.771Z,3.90
2023-06-04T01:47:51.129Z,4.00
2023-06-04T01:50:18.402Z,3.80
2023-06-04T01:52:45.113Z,4.10
2023-06-04T01:55:14.402Z,4.20
2023-06-04T01:57:45.379Z,3.60
2023-06-04T02:00:12.910Z,3.90
2023-06-04T02:02:44.890Z,4.30
2023-06-04T02:05:11.830Z,3.70
2023-06-04T02:07:39.855Z,3.80
2023-06-04T02:10:11.128Z,4.10
2023-06-04T02:12:38.734Z,3.70
2023-06-04T02:15:05.856Z,4.50
2023-06-04T02:17:44.056Z,4.00
2023-06-04T02:20:11.278Z,4.10
2023-06-04T02:22:38.224Z,4.10
2023-06-04T02:25:05.602Z,4.30
2023-06-04T02:27:32.258Z,4.50
2023-06-04T02:29:58.905Z,4.10
2023-06-04T02:32:26.134Z,3.50
2023-06-04T02:34:52.937Z,4.30
2023-06-04T02:37:19.669Z,4.30
2023-06-04T02:39:46.343Z,4.00
2023-06-04T02:42:13.306Z,4.10
2023-06-04T02:44:39.936Z,4.70
2023-06-04T02:47:07.021Z,4.60
2023-06-04T02:49:33.687Z,4.40
2023-06-04T02:52:00.455Z,4.30
2023-06-04T02:54:27.517Z,4.00
2023-06-04T02:56:54.663Z,4.70
2023-06-04T02:59:21.716Z,4.80
2023-06-04T03:01:49.125Z,4.10
2023-06-04T03:04:16.936Z,3.80
2023-06-04T03:06:47.510Z,4.20
2023-06-04T03:09:14.820Z,4.90
2023-06-04T03:11:41.532Z,5.30
2023-06-04T03:14:09.288Z,5.00
2023-06-04T03:16:41.300Z,4.80
2023-06-04T03:19:08.129Z,5.10
2023-06-04T03:21:34.948Z,4.40
2023-06-04T03:24:01.668Z,4.20
2023-06-04T03:26:29.067Z,4.00
2023-06-04T03:28:55.822Z,3.60
2023-06-04T03:31:23.083Z,4.20
2023-06-04T03:33:50.589Z,5.40
2023-06-04T03:36:17.663Z,4.40
2023-06-04T03:38:46.440Z,3.90
2023-06-04T03:41:13.204Z,4.00
2023-06-04T03:43:39.837Z,4.10
2023-06-04T03:46:08.185Z,3.80
2023-06-04T03:48:36.984Z,4.10
2023-06-04T03:51:04.036Z,4.60
2023-06-04T03:53:30.741Z,3.80
2023-06-04T03:55:57.403Z,4.30
2023-06-04T03:58:25.190Z,3.80
2023-06-04T04:00:52.650Z,3.80
2023-06-04T04:03:19.739Z,3.90
2023-06-04T04:05:46.730Z,3.70
2023-06-04T04:08:17.668Z,4.00
2023-06-04T04:10:45.071Z,4.20
2023-06-04T04:13:11.864Z,3.70
2023-06-04T04:15:39.168Z,3.80
2023-06-04T04:18:09.651Z,3.50
2023-06-04T04:20:36.632Z,3.40
2023-06-04T04:23:07.599Z,3.00
2023-06-04T04:25:34.526Z,3.30
2023-06-04T04:28:03.502Z,3.60
2023-06-04T04:30:30.386Z,3.60
2023-06-04T04:32:57.680Z,4.00
2023-06-04T04:35:36.127Z,4.00
2023-06-04T04:38:06.200Z,3.90
2023-06-04T04:40:37.019Z,3.70
2023-06-04T04:43:04.993Z,3.40
2023-06-04T04:45:31.983Z,3.60
2023-06-04T04:47:59.474Z,3.10
2023-06-04T04:50:26.504Z,3.70
2023-06-04T04:52:53.218Z,4.00
2023-06-04T04:55:20.505Z,4.00
2023-06-04T04:57:48.156Z,4.00
2023-06-04T05:00:16.383Z,4.00
2023-06-04T05:02:44.160Z,4.20
2023-06-04T05:05:12.138Z,3.80
2023-06-04T05:07:39.427Z,3.50
2023-06-04T05:10:06.534Z,4.10
2023-06-04T05:12:33.766Z,4.90
2023-06-04T05:15:02.158Z,3.90
2023-06-04T05:17:31.600Z,4.10
2023-06-04T05:20:04.639Z,4.90
2023-06-04T05:22:33.426Z,4.20
2023-06-04T05:25:00.977Z,5.10
2023-06-04T05:27:27.629Z,5.10
2023-06-04T05:29:54.542Z,4.80
2023-06-04T05:32:24.226Z,4.20
2023-06-04T05:34:51.002Z,4.80
2023-06-04T05:37:18.341Z,4.50
2023-06-04T05:39:45.319Z,4.90
2023-06-04T05:42:16.312Z,4.10
2023-06-04T05:44:43.988Z,5.10
2023-06-04T05:47:11.581Z,4.00
2023-06-04T05:49:38.358Z,4.60
2023-06-04T05:52:05.210Z,4.50
2023-06-04T05:54:33.132Z,5.10
2023-06-04T05:56:59.792Z,4.60
2023-06-04T05:59:26.741Z,4.90
2023-06-04T06:01:53.695Z,4.90
2023-06-04T06:04:21.569Z,4.70
2023-06-04T06:06:49.761Z,4.60
2023-06-04T06:09:20.220Z,4.90
2023-06-04T06:11:47.220Z,4.80
2023-06-04T06:14:14.319Z,4.40
2023-06-04T06:16:41.677Z,4.50
2023-06-04T06:19:08.384Z,4.60
2023-06-04T06:21:35.044Z,4.30
2023-06-04T06:24:02.004Z,4.40
2023-06-04T06:26:28.937Z,4.50
2023-06-04T06:28:58.051Z,4.30
2023-06-04T06:31:25.136Z,4.50
2023-06-04T06:33:51.792Z,4.60
2023-06-04T06:36:19.959Z,4.10
2023-06-04T06:38:47.352Z,4.40
2023-06-04T06:41:14.066Z,4.00
2023-06-04T06:43:41.068Z,4.80
2023-06-04T06:46:08.082Z,4.80
2023-06-04T06:48:34.805Z,4.60
2023-06-04T06:51:01.462Z,4.70
2023-06-04T06:53:28.107Z,4.60
2023-06-04T06:55:54.724Z,4.90
2023-06-04T06:58:22.615Z,4.70
2023-06-04T07:00:49.787Z,4.10
2023-06-04T07:03:16.551Z,4.40
2023-06-04T07:05:43.196Z,4.30
2023-06-04T07:08:09.913Z,4.20
2023-06-04T07:10:36.571Z,3.80
2023-06-04T07:13:03.178Z,4.20
2023-06-04T07:15:29.779Z,4.20
2023-06-04T07:17:56.402Z,4.80
2023-06-04T07:20:23.527Z,5.70
2023-06-04T07:22:50.190Z,4.60
2023-06-04T07:25:17.138Z,4.10
2023-06-04T07:27:43.832Z,4.00
2023-06-04T07:30:10.601Z,3.90
2023-06-04T07:32:37.285Z,5.90
2023-06-04T07:35:04.072Z,4.30
2023-06-04T07:37:31.365Z,3.80
2023-06-04T07:39:58.046Z,4.50
2023-06-04T07:42:24.921Z,3.80
2023-06-04T07:44:51.590Z,4.10
2023-06-04T07:47:18.201Z,4.10
2023-06-04T07:49:57.924Z,3.80
2023-06-04T07:52:28.988Z,4.20
2023-06-04T07:54:55.622Z,4.80
2023-06-04T07:57:22.261Z,4.40
2023-06-04T07:59:49.437Z,3.80
2023-06-04T08:02:16.173Z,4.00
2023-06-04T08:04:42.867Z,4.40
2023-06-04T08:07:09.558Z,3.90
2023-06-04T08:09:36.357Z,5.10
2023-06-04T08:12:02.959Z,4.00
2023-06-04T08:14:29.690Z,4.10
2023-06-04T08:16:56.337Z,4.30
2023-06-04T08:19:24.917Z,4.30
2023-06-04T08:21:51.731Z,3.90
2023-06-04T08:24:18.368Z,3.40
2023-06-04T08:26:44.997Z,4.20
2023-06-04T08:29:12.248Z,3.80
2023-06-04T08:31:40.609Z,4.40
2023-06-04T08:34:08.007Z,4.10
2023-06-04T08:36:34.603Z,4.40
2023-06-04T08:39:02.538Z,4.00
2023-06-04T08:41:45.715Z,4.00
2023-06-04T08:44:15.193Z,4.20
2023-06-04T08:46:42.297Z,4.50
2023-06-04T08:49:09.734Z,4.30
2023-06-04T08:51:38.523Z,3.80
2023-06-04T08:54:09.510Z,4.80
2023-06-04T08:56:38.139Z,4.10
2023-06-04T08:59:07.351Z,4.10
2023-06-04T09:01:34.868Z,4.50
2023-06-04T09:04:04.359Z,5.00
2023-06-04T09:06:31.473Z,4.50
2023-06-04T09:08:59.633Z,4.50
2023-06-04T09:11:34.366Z,4.50
2023-06-04T09:14:02.492Z,4.50
2023-06-04T09:16:34.528Z,4.20
2023-06-04T09:19:02.056Z,3.90
2023-06-04T09:21:28.720Z,4.90
2023-06-04T09:23:55.431Z,4.50
2023-06-04T09:26:23.134Z,4.00
2023-06-04T09:28:49.800Z,4.10
2023-06-04T09:31:17.579Z,4.10
2023-06-04T09:33:48.607Z,4.30
2023-06-04T09:36:16.211Z,4.20
2023-06-04T09:38:43.200Z,4.10
2023-06-04T09:41:12.884Z,4.10
2023-06-04T09:43:39.687Z,4.10
2023-06-04T09:46:13.595Z,5.30
2023-06-04T09:48:41.280Z,4.40
2023-06-04T09:51:08.945Z,4.60
2023-06-04T09:53:35.998Z,4.80
2023-06-04T09:56:04.902Z,4.50
2023-06-04T09:58:32.540Z,4.30
2023-06-04T10:01:00.382Z,4.00
2023-06-04T10:03:31.465Z,4.10
2023-06-04T10:05:58.662Z,4.10
2023-06-04T10:08:27.144Z,4.70
2023-06-04T10:10:58.648Z,5.00
2023-06-04T10:13:27.395Z,4.60
2023-06-04T10:15:55.047Z,4.50
2023-06-04T10:18:21.816Z,4.90
2023-06-04T10:20:48.813Z,4.90
2023-06-04T10:23:15.429Z,4.90
2023-06-04T10:25:42.054Z,5.80
2023-06-04T10:28:09.264Z,5.40
2023-06-04T10:30:35.865Z,4.90
2023-06-04T10:33:03.597Z,5.30
2023-06-04T10:35:34.195Z,5.20
2023-06-04T10:38:08.123Z,5.20
2023-06-04T10:40:34.807Z,5.40
2023-06-04T10:43:08.818Z,5.10
2023-06-04T10:45:35.849Z,5.40
2023-06-04T10:48:06.636Z,5.40
2023-06-04T10:50:37.312Z,6.10
2023-06-04T10:53:04.237Z,6.00
2023-06-04T10:55:31.675Z,6.10
2023-06-04T10:57:59.586Z,6.20
2023-06-04T11:00:36.308Z,6.30
2023-06-04T11:03:03.008Z,6.30
2023-06-04T11:05:36.900Z,6.10
2023-06-04T11:08:04.520Z,6.30
2023-06-04T11:10:36.318Z,6.00
2023-06-04T11:13:04.786Z,5.80
2023-06-04T11:15:49.685Z,5.50
2023-06-04T11:18:26.032Z,5.60
2023-06-04T11:20:59.816Z,6.60
2023-06-04T11:23:26.661Z,6.00
2023-06-04T11:25:53.674Z,5.30
2023-06-04T11:28:20.571Z,5.80
2023-06-04T11:30:57.704Z,5.20
2023-06-04T11:33:24.380Z,5.70
2023-06-04T11:35:51.038Z,6.10
2023-06-04T11:38:17.727Z,5.90
2023-06-04T11:40:46.136Z,6.60
2023-06-04T11:43:12.943Z,5.30
2023-06-04T11:45:39.700Z,6.80
2023-06-04T11:48:06.637Z,6.60
2023-06-04T11:50:33.490Z,7.30
2023-06-04T11:53:00.831Z,6.70
2023-06-04T11:55:27.552Z,6.30
2023-06-04T11:57:54.734Z,6.10
2023-06-04T12:00:21.476Z,6.10
2023-06-04T12:02:55.549Z,6.10
2023-06-04T12:05:26.718Z,6.40
2023-06-04T12:07:53.653Z,5.60
2023-06-04T12:10:21.039Z,5.90
2023-06-04T12:12:55.766Z,5.90
2023-06-04T12:15:23.731Z,6.30
2023-06-04T12:17:55.582Z,6.00
2023-06-04T12:20:33.546Z,6.70
2023-06-04T12:23:01.716Z,6.50
2023-06-04T12:25:29.405Z,6.20
2023-06-04T12:27:56.207Z,6.30
2023-06-04T12:30:23.544Z,6.70
2023-06-04T12:32:52.096Z,5.40
2023-06-04T12:35:21.503Z,7.00
2023-06-04T12:37:48.268Z,6.30
2023-06-04T12:40:15.238Z,6.20
2023-06-04T12:42:41.991Z,6.40
2023-06-04T12:45:10.117Z,6.60
2023-06-04T12:48:27.634Z,6.40
2023-06-04T12:50:54.683Z,6.40
2023-06-04T12:53:21.420Z,6.10
2023-06-04T12:55:48.077Z,5.70
2023-06-04T12:58:14.788Z,5.60
2023-06-04T13:00:41.402Z,6.50
2023-06-04T13:03:10.003Z,6.10
2023-06-04T13:05:37.984Z,5.70
2023-06-04T13:08:04.726Z,5.70
2023-06-04T13:10:31.420Z,5.90
2023-06-04T13:12:58.166Z,5.60
2023-06-04T13:15:24.820Z,6.00
2023-06-04T13:17:51.504Z,5.90
2023-06-04T13:20:18.224Z,6.90
2023-06-04T13:22:45.234Z,6.40
2023-06-04T13:25:11.859Z,6.30
2023-06-04T13:27:38.455Z,6.20
2023-06-04T13:30:07.127Z,6.30
2023-06-04T13:32:33.884Z,6.40
2023-06-04T13:35:00.502Z,6.60
2023-06-04T13:37:27.130Z,6.20
2023-06-04T13:39:53.760Z,6.00
2023-06-04T13:42:20.393Z,5.60
2023-06-04T13:44:47.052Z,5.80
2023-06-04T13:47:13.673Z,6.00
2023-06-04T13:49:40.293Z,5.70
2023-06-04T13:52:06.907Z,6.20
2023-06-04T13:54:33.580Z,6.80
2023-06-04T13:57:02.636Z,6.10
2023-06-04T13:59:29.253Z,6.20
2023-06-04T14:01:56.065Z,6.70
2023-06-04T14:04:22.682Z,6.50
2023-06-04T14:06:49.257Z,7.00
2023-06-04T14:09:16.524Z,6.10
2023-06-04T14:11:43.199Z,6.50
2023-06-04T14:14:11.208Z,6.00
2023-06-04T14:16:37.966Z,5.30
2023-06-04T14:19:04.636Z,5.10
2023-06-04T14:21:31.246Z,4.80
2023-06-04T14:23:57.933Z,4.90
2023-06-04T14:26:25.952Z,4.50
2023-06-04T14:28:52.547Z,5.30
2023-06-04T14:31:19.164Z,4.90
2023-06-04T14:33:45.889Z,5.30
2023-06-04T14:36:12.576Z,5.30
2023-06-04T14:38:39.411Z,5.30
2023-06-04T14:41:06.159Z,5.20
2023-06-04T14:43:33.354Z,5.00
2023-06-04T14:46:00.156Z,5.10
2023-06-04T14:48:26.919Z,5.40
2023-06-04T14:50:54.785Z,5.30
2023-06-04T14:53:21.750Z,6.00
2023-06-04T14:55:48.479Z,6.00
2023-06-04T14:58:16.150Z,6.00
2023-06-04T15:00:43.225Z,5.20
2023-06-04T15:03:09.880Z,4.60
2023-06-04T15:05:36.503Z,3.50
2023-06-04T15:08:04.509Z,4.50
2023-06-04T15:10:31.485Z,4.60
2023-06-04T15:12:58.197Z,4.90
2023-06-04T15:15:25.164Z,5.30
2023-06-04T15:17:51.994Z,5.50
2023-06-04T15:20:18.789Z,5.90
2023-06-04T15:22:45.461Z,5.30
2023-06-04T15:25:12.138Z,6.10
2023-06-04T15:27:39.791Z,5.20
2023-06-04T15:30:07.526Z,5.60
2023-06-04T15:32:35.399Z,5.60
2023-06-04T15:35:03.319Z,6.90
2023-06-04T15:37:30.132Z,5.40
2023-06-04T15:39:59.010Z,5.50
2023-06-04T15:42:25.873Z,5.70
2023-06-04T15:44:52.545Z,6.00
2023-06-04T15:47:19.294Z,8.70
2023-06-04T15:49:46.262Z,6.60
2023-06-04T15:52:12.952Z,5.70
2023-06-04T15:54:46.719Z,6.00
2023-06-04T15:57:14.191Z,6.80
2023-06-04T15:59:41.816Z,6.20
2023-06-04T16:02:08.657Z,5.90
2023-06-04T16:04:35.690Z,5.80
2023-06-04T16:07:03.030Z,5.90
2023-06-04T16:09:30.016Z,6.00
2023-06-04T16:11:56.785Z,5.30
2023-06-04T16:14:23.589Z,5.60
2023-06-04T16:16:50.429Z,5.60
2023-06-04T16:19:17.313Z,5.60
2023-06-04T16:21:44.111Z,5.40
2023-06-04T16:24:11.263Z,5.60
2023-06-04T16:26:37.934Z,5.10
2023-06-04T16:29:04.985Z,6.00
2023-06-04T16:31:31.726Z,5.50
2023-06-04T16:33:58.528Z,5.70
2023-06-04T16:36:25.142Z,5.90
2023-06-04T16:38:52.879Z,5.60
2023-06-04T16:41:19.567Z,7.00
2023-06-04T16:43:46.341Z,5.80
2023-06-04T16:46:12.960Z,6.80
2023-06-04T16:48:39.794Z,6.10
2023-06-04T16:51:06.524Z,5.60
2023-06-04T16:53:35.713Z,5.50
2023-06-04T16:56:02.871Z,5.10
2023-06-04T16:58:29.598Z,5.60
2023-06-04T17:00:56.324Z,5.80
2023-06-04T17:03:23.353Z,5.40
2023-06-04T17:05:50.335Z,5.60
2023-06-04T17:08:17.090Z,5.20
2023-06-04T17:10:43.865Z,5.60
2023-06-04T17:13:10.719Z,6.30
2023-06-04T17:15:37.320Z,5.30
2023-06-04T17:18:07.676Z,5.40
2023-06-04T17:20:34.368Z,5.70
2023-06-04T17:23:03.593Z,5.10
2023-06-04T17:25:33.390Z,5.00
2023-06-04T17:28:00.426Z,4.80
2023-06-04T17:30:27.203Z,4.20
2023-06-04T17:32:54.056Z,4.90
2023-06-04T17:35:21.016Z,5.30
2023-06-04T17:37:47.662Z,4.00
2023-06-04T17:40:14.297Z,4.10
2023-06-04T17:42:47.651Z,3.60
2023-06-04T17:45:14.800Z,3.50
2023-06-04T17:47:41.724Z,3.60
2023-06-04T17:50:09.739Z,4.20
2023-06-04T17:52:36.535Z,3.70
2023-06-04T17:55:03.382Z,4.10
2023-06-04T17:57:31.504Z,4.20
2023-06-04T17:59:58.732Z,3.20
2023-06-04T18:02:25.792Z,3.40
2023-06-04T18:04:52.934Z,3.20
2023-06-04T18:07:20.064Z,3.70
2023-06-04T18:09:46.974Z,3.60
2023-06-04T18:12:13.674Z,3.20
2023-06-04T18:14:40.893Z,4.10
2023-06-04T18:17:08.034Z,3.80
2023-06-04T18:19:35.238Z,3.80
2023-06-04T18:22:02.394Z,3.80
2023-06-04T18:24:29.569Z,3.50
2023-06-04T18:26:56.680Z,3.60
2023-06-04T18:29:23.757Z,3.50
2023-06-04T18:31:50.535Z,4.60
2023-06-04T18:34:21.712Z,4.00
2023-06-04T18:36:49.119Z,4.20
2023-06-04T18:39:15.998Z,4.90
2023-06-04T18:41:43.675Z,4.90
2023-06-04T18:44:10.373Z,4.40
2023-06-04T18:46:37.293Z,4.70
2023-06-04T18:49:04.244Z,4.90
2023-06-04T18:51:31.878Z,4.20
2023-06-04T18:53:58.671Z,6.40
2023-06-04T18:56:26.195Z,6.20
2023-06-04T18:58:54.065Z,4.80
2023-06-04T19:01:21.127Z,4.80
2023-06-04T19:03:48.206Z,5.60
2023-06-04T19:06:15.198Z,4.80
2023-06-04T19:08:41.804Z,5.20
2023-06-04T19:11:08.845Z,7.20
2023-06-04T19:13:35.640Z,6.00
2023-06-04T19:16:02.381Z,5.80
2023-06-04T19:18:29.124Z,6.90
2023-06-04T19:20:55.825Z,6.50
2023-06-04T19:23:22.909Z,6.80
2023-06-04T19:25:49.713Z,5.60
2023-06-04T19:28:16.906Z,5.00
2023-06-04T19:30:44.322Z,5.20
2023-06-04T19:33:11.802Z,5.60
2023-06-04T19:35:39.494Z,5.20
2023-06-04T19:38:07.636Z,5.30
2023-06-04T19:40:35.306Z,5.50
2023-06-04T19:43:02.104Z,5.40
2023-06-04T19:45:28.744Z,6.00
2023-06-04T19:47:56.250Z,6.80
2023-06-04T19:50:22.995Z,7.80
2023-06-04T19:52:50.506Z,7.40
2023-06-04T19:55:19.178Z,7.10
2023-06-04T19:57:46.455Z,7.50
2023-06-04T20:00:13.396Z,7.00
2023-06-04T20:02:42.130Z,6.00
2023-06-04T20:05:09.051Z,5.90
2023-06-04T20:07:35.890Z,6.40
2023-06-04T20:10:03.188Z,5.60
2023-06-04T20:12:29.801Z,5.60
2023-06-04T20:14:56.431Z,5.90
2023-06-04T20:17:23.089Z,4.90
2023-06-04T20:19:49.811Z,4.90
2023-06-04T20:22:16.479Z,4.90
2023-06-04T20:24:43.865Z,4.80
2023-06-04T20:27:10.788Z,5.20
2023-06-04T20:29:37.506Z,4.10
2023-06-04T20:32:04.340Z,4.60
2023-06-04T20:34:31.084Z,4.40
2023-06-04T20:36:58.372Z,4.10
2023-06-04T20:39:31.803Z,4.70
2023-06-04T20:41:58.712Z,4.60
2023-06-04T20:44:25.382Z,4.40
2023-06-04T20:46:52.224Z,4.40
2023-06-04T20:49:23.711Z,4.30
2023-06-04T20:51:50.470Z,4.50
2023-06-04T20:54:17.222Z,4.20
2023-06-04T20:56:44.549Z,4.60
2023-06-04T20:59:11.268Z,4.30
2023-06-04T21:01:38.026Z,4.50
2023-06-04T21:04:05.251Z,4.90
2023-06-04T21:06:32.157Z,4.70
2023-06-04T21:08:58.814Z,4.30
2023-06-04T21:11:25.582Z,4.40
2023-06-04T21:13:52.212Z,5.00
2023-06-04T21:16:19.070Z,4.90
2023-06-04T21:18:45.893Z,4.80
2023-06-04T21:21:12.531Z,5.50
2023-06-04T21:23:39.221Z,5.50
2023-06-04T21:26:06.469Z,5.20
2023-06-04T21:28:33.111Z,5.40
2023-06-04T21:30:59.740Z,5.30
2023-06-04T21:33:26.465Z,5.70
2023-06-04T21:35:53.115Z,5.40
2023-06-04T21:38:20.271Z,5.40
2023-06-04T21:40:46.928Z,5.60
2023-06-04T21:43:13.604Z,5.30
2023-06-04T21:45:40.950Z,5.80
2023-06-04T21:48:07.704Z,5.80
2023-06-04T21:50:34.442Z,5.30
2023-06-04T21:53:01.189Z,5.20
2023-06-04T21:55:27.865Z,5.00
2023-06-04T21:57:54.544Z,4.30
2023-06-04T22:00:22.131Z,5.10
2023-06-04T22:02:48.877Z,5.20
2023-06-04T22:05:15.857Z,5.10
2023-06-04T22:07:42.551Z,4.30
2023-06-04T22:10:09.266Z,6.20
2023-06-04T22:12:35.930Z,7.20
2023-06-04T22:15:02.623Z,5.70
2023-06-04T22:17:29.325Z,5.80
2023-06-04T22:19:56.043Z,5.50
2023-06-04T22:22:22.755Z,4.60
2023-06-04T22:24:49.397Z,4.60
2023-06-04T22:27:16.124Z,4.70
2023-06-04T22:29:42.757Z,4.70
2023-06-04T22:32:09.444Z,6.00
2023-06-04T22:34:36.447Z,4.90
2023-06-04T22:37:03.132Z,5.20
2023-06-04T22:39:29.756Z,4.80
2023-06-04T22:41:56.450Z,5.30
2023-06-04T22:44:23.526Z,4.20
2023-06-04T22:46:50.900Z,4.80
2023-06-04T22:49:17.914Z,4.10
2023-06-04T22:51:45.044Z,4.90
2023-06-04T22:54:11.746Z,4.70
2023-06-04T22:56:38.446Z,4.40
2023-06-04T22:59:05.150Z,4.10
2023-06-04T23:01:31.782Z,4.00
2023-06-04T23:03:58.459Z,3.70
2023-06-04T23:06:25.370Z,4.40
2023-06-04T23:08:51.975Z,4.50
2023-06-04T23:11:18.622Z,4.60
2023-06-04T23:13:45.823Z,4.70
2023-06-04T23:16:12.492Z,4.00
2023-06-04T23:18:39.293Z,4.20
2023-06-04T23:21:06.255Z,4.60
2023-06-04T23:23:33.729Z,4.00
2023-06-04T23:26:00.436Z,4.10
2023-06-04T23:28:27.139Z,4.30
2023-06-04T23:30:53.779Z,4.70
2023-06-04T23:33:20.386Z,5.00
2023-06-04T23:35:49.177Z,5.60
2023-06-04T23:38:16.284Z,5.20
2023-06-04T23:40:42.908Z,4.90
2023-06-04T23:43:09.564Z,4.80
2023-06-04T23:45:36.230Z,5.10
2023-06-04T23:48:02.964Z,5.10
2023-06-04T23:50:29.713Z,5.80
2023-06-04T23:52:56.610Z,5.30
2023-06-04T23:55:23.241Z,4.30
2023-06-04T23:57:49.900Z,5.30
